createdAt,value
2022-09-05T00:00:31.443Z,18.19
2022-09-05T00:02:41.814Z,18.15
2022-09-05T00:05:01.149Z,18.11
2022-09-05T00:07:09.996Z,18.09
2022-09-05T00:09:56.353Z,18.09
2022-09-05T00:12:01.323Z,18.05
2022-09-05T00:14:34.281Z,18.03
2022-09-05T00:16:52.908Z,18.01
2022-09-05T00:24:18.613Z,17.99
2022-09-05T00:24:34.657Z,17.98
2022-09-05T00:24:43.560Z,17.94
2022-09-05T00:26:52.279Z,17.92
2022-09-05T00:29:03.261Z,17.88
2022-09-05T00:31:53.774Z,17.84
2022-09-05T00:33:51.142Z,17.82
2022-09-05T00:36:08.060Z,17.82
2022-09-05T00:38:15.290Z,17.81
2022-09-05T00:40:26.387Z,17.80
2022-09-05T00:42:29.594Z,17.79
2022-09-05T00:44:34.806Z,17.78
2022-09-05T00:46:40.114Z,17.78
2022-09-05T00:48:50.290Z,17.76
2022-09-05T00:51:29.359Z,17.75
2022-09-05T00:53:43.221Z,17.72
2022-09-05T00:55:58.785Z,17.69
2022-09-05T00:58:12.544Z,17.66
2022-09-05T01:00:18.407Z,17.63
2022-09-05T01:02:36.352Z,17.63
2022-09-05T01:04:55.769Z,17.63
2022-09-05T01:07:21.890Z,17.58
2022-09-05T01:09:39.683Z,17.57
2022-09-05T01:11:52.042Z,17.55
2022-09-05T01:14:01.153Z,17.53
2022-09-05T01:16:10.675Z,17.50
2022-09-05T01:18:27.132Z,17.51
2022-09-05T01:20:51.608Z,17.47
2022-09-05T01:23:18.200Z,17.45
2022-09-05T01:25:29.614Z,17.43
2022-09-05T01:29:12.965Z,17.39
2022-09-05T01:30:13.932Z,17.32
2022-09-05T01:32:26.277Z,17.29
2022-09-05T01:34:35.600Z,17.27
2022-09-05T01:36:51.005Z,17.24
2022-09-05T01:40:01.779Z,17.21
2022-09-05T01:41:31.336Z,17.19
2022-09-05T01:43:51.512Z,17.18
2022-09-05T01:46:00.392Z,17.17
2022-09-05T01:48:06.103Z,17.14
2022-09-05T01:50:22.030Z,17.12
2022-09-05T01:52:30.546Z,17.10
2022-09-05T01:54:41.450Z,17.02
2022-09-05T01:56:53.907Z,16.98
2022-09-05T01:59:11.308Z,16.94
2022-09-05T02:01:27.011Z,16.94
2022-09-05T02:03:42.118Z,16.94
2022-09-05T02:06:25.597Z,16.94
2022-09-05T02:08:41.853Z,16.95
2022-09-05T02:10:56.027Z,16.91
2022-09-05T02:13:04.374Z,16.89
2022-09-05T02:15:14.630Z,16.90
2022-09-05T02:17:51.294Z,16.87
2022-09-05T02:19:53.752Z,16.83
2022-09-05T02:22:02.482Z,16.76
2022-09-05T02:24:13.979Z,16.72
2022-09-05T02:26:19.827Z,16.70
2022-09-05T02:28:28.408Z,16.69
2022-09-05T02:30:36.778Z,16.71
2022-09-05T02:32:59.650Z,16.71
2022-09-05T02:35:08.859Z,16.69
2022-09-05T02:37:16.039Z,16.68
2022-09-05T02:45:03.377Z,16.67
2022-09-05T02:45:13.412Z,16.62
2022-09-05T02:45:14.816Z,16.61
2022-09-05T02:47:02.339Z,16.58
2022-09-05T02:49:38.059Z,16.56
2022-09-05T02:57:30.241Z,16.55
2022-09-05T02:57:36.181Z,16.52
2022-09-05T02:57:46.895Z,16.54
2022-09-05T02:59:16.566Z,16.48
2022-09-05T03:01:32.937Z,16.47
2022-09-05T03:03:41.768Z,16.45
2022-09-05T03:05:49.131Z,16.43
2022-09-05T03:08:08.347Z,16.43
2022-09-05T03:10:48.455Z,16.44
2022-09-05T03:13:19.947Z,16.41
2022-09-05T03:16:04.929Z,16.40
2022-09-05T03:18:25.148Z,16.37
2022-09-05T03:23:54.908Z,16.34
2022-09-05T03:26:35.857Z,16.34
2022-09-05T03:29:15.621Z,16.28
2022-09-05T03:31:38.539Z,16.22
2022-09-05T03:33:59.694Z,16.19
2022-09-05T03:36:50.170Z,16.16
2022-09-05T03:39:36.086Z,16.12
2022-09-05T03:41:53.197Z,16.10
2022-09-05T03:44:12.357Z,16.08
2022-09-05T03:46:28.093Z,16.10
2022-09-05T03:49:04.134Z,16.10
2022-09-05T03:57:08.775Z,16.09
2022-09-05T03:57:14.833Z,16.08
2022-09-05T03:57:38.468Z,15.99
2022-09-05T04:00:05.630Z,15.92
2022-09-05T04:08:05.930Z,15.85
2022-09-05T04:08:09.531Z,15.80
2022-09-05T04:08:30.795Z,15.75
2022-09-05T04:09:49.970Z,15.72
2022-09-05T04:11:57.217Z,15.73
2022-09-05T04:14:04.140Z,15.76
2022-09-05T04:16:12.047Z,15.76
2022-09-05T04:18:32.714Z,15.77
2022-09-05T04:20:40.865Z,15.77
2022-09-05T04:23:06.400Z,15.76
2022-09-05T04:25:13.791Z,15.74
2022-09-05T04:27:30.773Z,15.74
2022-09-05T04:29:45.902Z,15.72
2022-09-05T04:32:17.702Z,15.74
2022-09-05T04:34:38.262Z,15.75
2022-09-05T04:36:41.517Z,15.73
2022-09-05T04:38:46.635Z,15.72
2022-09-05T04:40:51.739Z,15.72
2022-09-05T04:42:54.908Z,15.70
2022-09-05T04:45:04.504Z,15.68
2022-09-05T04:47:12.471Z,15.70
2022-09-05T04:49:23.532Z,15.70
2022-09-05T04:52:02.077Z,15.70
2022-09-05T04:54:23.499Z,15.74
2022-09-05T04:56:34.479Z,15.76
2022-09-05T04:59:58.226Z,15.76
2022-09-05T05:06:04.119Z,15.80
2022-09-05T05:06:13.730Z,15.82
2022-09-05T05:06:19.102Z,15.90
2022-09-05T05:08:29.117Z,16.06
2022-09-05T05:14:12.409Z,16.19
2022-09-05T05:17:59.036Z,16.33
2022-09-05T05:18:09.041Z,16.50
2022-09-05T05:18:39.777Z,16.68
2022-09-05T05:20:44.387Z,16.88
2022-09-05T05:22:57.147Z,17.04
2022-09-05T05:25:01.317Z,17.20
2022-09-05T05:27:08.486Z,17.37
2022-09-05T05:29:18.808Z,17.55
2022-09-05T05:31:25.368Z,17.74
2022-09-05T05:33:33.804Z,17.92
2022-09-05T05:35:45.901Z,18.08
2022-09-05T05:37:53.748Z,18.08
2022-09-05T05:40:06.060Z,17.96
2022-09-05T05:42:21.164Z,17.90
2022-09-05T05:44:27.856Z,17.92
2022-09-05T05:46:33.891Z,17.95
2022-09-05T05:48:39.683Z,17.95
2022-09-05T05:50:50.349Z,18.07
2022-09-05T05:53:12.988Z,18.11
2022-09-05T05:55:58.466Z,18.28
2022-09-05T05:58:24.053Z,18.52
2022-09-05T06:00:39.020Z,18.79
2022-09-05T06:03:26.878Z,18.89
2022-09-05T06:06:03.965Z,18.96
2022-09-05T06:11:43.665Z,19.15
2022-09-05T06:14:55.594Z,19.28
2022-09-05T06:14:59.830Z,19.34
2022-09-05T06:17:42.848Z,19.59
2022-09-05T06:22:06.574Z,19.58
2022-09-05T06:23:38.789Z,19.54
2022-09-05T06:26:18.510Z,19.59
2022-09-05T06:28:26.897Z,19.84
2022-09-05T06:30:36.427Z,20.08
2022-09-05T06:33:02.017Z,20.23
2022-09-05T06:35:23.017Z,20.30
2022-09-05T06:37:35.347Z,20.44
2022-09-05T06:39:54.084Z,20.62
2022-09-05T06:42:28.540Z,20.75
2022-09-05T06:44:48.126Z,20.86
2022-09-05T06:47:22.187Z,21.08
2022-09-05T06:49:30.599Z,21.14
2022-09-05T06:52:28.914Z,21.21
2022-09-05T06:54:59.601Z,21.31
2022-09-05T06:57:16.730Z,21.44
2022-09-05T06:59:56.974Z,21.54
2022-09-05T07:02:08.634Z,21.72
2022-09-05T07:05:21.782Z,22.06
2022-09-05T07:07:02.359Z,22.31
2022-09-05T07:09:20.745Z,22.48
2022-09-05T07:11:27.200Z,22.69
2022-09-05T07:13:34.762Z,22.89
2022-09-05T07:15:44.389Z,23.11
2022-09-05T07:18:09.940Z,23.41
2022-09-05T07:20:22.049Z,23.65
2022-09-05T07:22:47.445Z,23.79
2022-09-05T07:24:54.176Z,23.95
2022-09-05T07:27:00.804Z,23.98
2022-09-05T07:29:05.868Z,24.00
2022-09-05T07:31:37.280Z,24.00
2022-09-05T07:33:41.225Z,24.15
2022-09-05T07:35:44.588Z,24.40
2022-09-05T07:37:50.542Z,24.58
2022-09-05T07:39:55.988Z,24.72
2022-09-05T07:42:06.272Z,24.89
2022-09-05T07:44:18.803Z,24.90
2022-09-05T07:46:27.943Z,24.95
2022-09-05T07:48:35.801Z,25.04
2022-09-05T07:54:31.635Z,25.25
2022-09-05T07:57:00.803Z,25.38
2022-09-05T07:57:08.507Z,25.65
2022-09-05T07:58:02.062Z,25.78
2022-09-05T08:00:25.695Z,25.68
2022-09-05T08:02:31.144Z,25.90
2022-09-05T08:04:36.162Z,26.21
2022-09-05T08:07:46.737Z,26.40
2022-09-05T08:10:05.968Z,26.30
2022-09-05T08:11:32.457Z,26.29
2022-09-05T08:13:50.078Z,26.58
2022-09-05T08:16:12.945Z,26.80
2022-09-05T08:18:18.972Z,27.09
2022-09-05T08:20:31.787Z,27.26
2022-09-05T08:22:52.133Z,27.49
2022-09-05T08:25:01.864Z,27.66
2022-09-05T08:27:16.394Z,27.81
2022-09-05T08:29:31.915Z,27.89
2022-09-05T08:31:38.602Z,27.99
2022-09-05T08:33:45.866Z,28.10
2022-09-05T08:35:53.083Z,28.23
2022-09-05T08:38:02.846Z,28.46
2022-09-05T08:40:11.640Z,28.57
2022-09-05T08:42:27.051Z,28.81
2022-09-05T08:46:37.517Z,29.00
2022-09-05T08:47:08.760Z,29.17
2022-09-05T08:49:53.818Z,29.37
2022-09-05T08:51:58.678Z,29.48
2022-09-05T08:54:11.992Z,29.65
2022-09-05T08:56:20.663Z,29.83
2022-09-05T08:59:27.127Z,29.78
2022-09-05T09:01:22.635Z,29.87
2022-09-05T09:03:30.364Z,30.01
2022-09-05T09:06:13.542Z,30.14
2022-09-05T09:08:22.245Z,30.19
2022-09-05T09:10:34.900Z,30.25
2022-09-05T09:13:09.739Z,30.24
2022-09-05T09:15:19.416Z,30.40
2022-09-05T09:17:32.668Z,30.53
2022-09-05T09:19:46.586Z,30.61
2022-09-05T09:21:58.739Z,30.66
2022-09-05T09:24:10.562Z,30.65
2022-09-05T09:26:15.877Z,30.76
2022-09-05T09:28:51.397Z,30.89
2022-09-05T09:30:58.644Z,30.99
2022-09-05T09:33:06.442Z,31.07
2022-09-05T09:35:13.042Z,31.10
2022-09-05T09:37:49.598Z,31.13
2022-09-05T09:40:10.426Z,31.22
2022-09-05T09:42:33.443Z,31.33
2022-09-05T09:45:28.802Z,31.29
2022-09-05T09:47:41.886Z,31.34
2022-09-05T09:50:10.199Z,31.37
2022-09-05T09:52:46.391Z,31.36
2022-09-05T09:55:27.156Z,31.31
2022-09-05T09:58:14.408Z,31.38
2022-09-05T10:00:21.111Z,31.41
2022-09-05T10:06:52.518Z,31.43
2022-09-05T10:10:34.141Z,31.41
2022-09-05T10:10:45.889Z,31.47
2022-09-05T10:11:49.985Z,31.57
2022-09-05T10:14:30.735Z,31.55
2022-09-05T10:17:06.991Z,31.57
2022-09-05T10:22:40.336Z,31.52
2022-09-05T10:25:19.599Z,31.62
2022-09-05T10:27:30.303Z,31.68
2022-09-05T10:30:10.700Z,31.60
2022-09-05T10:35:11.722Z,31.61
2022-09-05T10:35:17.317Z,31.58
2022-09-05T10:37:13.752Z,31.49
2022-09-05T10:39:21.099Z,31.41
2022-09-05T10:41:34.083Z,31.47
2022-09-05T10:43:45.108Z,31.41
2022-09-05T10:45:53.251Z,31.27
2022-09-05T10:48:13.182Z,31.28
2022-09-05T10:50:27.196Z,31.38
2022-09-05T10:52:36.160Z,31.38
2022-09-05T10:54:49.799Z,31.35
2022-09-05T10:57:01.780Z,31.44
2022-09-05T11:02:04.717Z,31.47
2022-09-05T11:02:30.090Z,31.44
2022-09-05T11:04:18.120Z,31.41
2022-09-05T11:06:26.205Z,31.41
2022-09-05T11:08:37.205Z,31.30
2022-09-05T11:10:46.765Z,31.30
2022-09-05T11:13:03.019Z,31.18
2022-09-05T11:15:09.198Z,31.21
2022-09-05T11:17:19.229Z,31.26
2022-09-05T11:19:28.381Z,31.16
2022-09-05T11:21:47.172Z,31.16
2022-09-05T11:23:57.084Z,31.11
2022-09-05T11:26:04.581Z,31.06
2022-09-05T11:28:15.021Z,31.02
2022-09-05T11:30:30.057Z,30.92
2022-09-05T11:39:20.616Z,30.84
2022-09-05T11:39:55.011Z,30.58
2022-09-05T11:40:02.215Z,30.31
2022-09-05T11:41:25.140Z,30.42
2022-09-05T11:44:25.942Z,30.53
2022-09-05T11:46:34.413Z,30.60
2022-09-05T11:49:15.371Z,30.66
2022-09-05T11:51:51.162Z,30.73
2022-09-05T11:54:28.028Z,30.89
2022-09-05T11:57:32.528Z,31.02
2022-09-05T12:00:31.637Z,31.03
2022-09-05T12:02:59.191Z,30.94
2022-09-05T12:05:49.202Z,30.92
2022-09-05T12:07:52.400Z,31.06
2022-09-05T12:10:07.106Z,31.17
2022-09-05T12:12:39.516Z,31.22
2022-09-05T12:14:54.866Z,31.22
2022-09-05T12:17:10.178Z,31.28
2022-09-05T12:19:28.001Z,31.31
2022-09-05T12:21:38.301Z,31.38
2022-09-05T12:24:28.574Z,31.52
2022-09-05T12:27:41.627Z,31.44
2022-09-05T12:29:27.347Z,31.16
2022-09-05T12:32:36.606Z,31.05
2022-09-05T12:36:10.694Z,31.05
2022-09-05T12:40:05.153Z,31.09
2022-09-05T12:40:45.163Z,31.07
2022-09-05T12:41:43.841Z,31.08
2022-09-05T12:44:13.842Z,31.05
2022-09-05T12:46:00.370Z,30.82
2022-09-05T12:48:11.513Z,30.72
2022-09-05T12:50:18.016Z,30.71
2022-09-05T12:52:37.482Z,30.77
2022-09-05T12:54:46.539Z,30.80
2022-09-05T13:00:24.213Z,30.87
2022-09-05T13:02:58.986Z,30.88
2022-09-05T13:03:11.270Z,30.88
2022-09-05T13:04:25.502Z,30.81
2022-09-05T13:06:39.162Z,30.71
2022-09-05T13:08:58.950Z,30.67
2022-09-05T13:14:46.964Z,30.58
2022-09-05T13:15:03.007Z,30.59
2022-09-05T13:15:55.351Z,30.63
2022-09-05T13:18:08.517Z,30.70
2022-09-05T13:20:16.666Z,30.79
2022-09-05T13:22:23.618Z,30.83
2022-09-05T13:24:30.716Z,30.87
2022-09-05T13:26:36.782Z,30.91
2022-09-05T13:28:48.842Z,30.91
2022-09-05T13:35:51.842Z,30.88
2022-09-05T13:38:02.866Z,30.87
2022-09-05T13:38:03.468Z,30.91
2022-09-05T13:38:48.091Z,30.92
2022-09-05T13:40:58.131Z,30.88
2022-09-05T13:43:07.504Z,30.85
2022-09-05T13:45:18.517Z,30.81
2022-09-05T13:47:45.651Z,30.79
2022-09-05T13:49:54.125Z,30.81
2022-09-05T13:52:09.124Z,30.83
2022-09-05T13:54:36.311Z,30.80
2022-09-05T13:56:46.021Z,30.73
2022-09-05T13:58:56.970Z,30.70
2022-09-05T14:01:29.776Z,30.72
2022-09-05T14:09:44.614Z,30.71
2022-09-05T14:11:55.347Z,30.73
2022-09-05T14:14:11.387Z,30.73
2022-09-05T14:16:16.763Z,30.72
2022-09-05T14:18:22.693Z,30.73
2022-09-05T14:20:49.515Z,30.70
2022-09-05T14:22:56.240Z,30.68
2022-09-05T14:25:00.255Z,30.69
2022-09-05T14:27:13.748Z,30.68
2022-09-05T14:29:20.681Z,30.61
2022-09-05T14:37:39.635Z,30.58
2022-09-05T14:37:53.759Z,30.57
2022-09-05T14:37:55.240Z,30.54
2022-09-05T14:39:21.358Z,30.53
2022-09-05T14:42:07.399Z,30.52
2022-09-05T14:44:29.835Z,30.52
2022-09-05T14:47:02.221Z,30.50
2022-09-05T14:49:21.995Z,30.50
2022-09-05T14:51:43.225Z,30.52
2022-09-05T14:56:56.385Z,30.54
2022-09-05T15:02:44.772Z,30.54
2022-09-05T15:02:53.586Z,30.54
2022-09-05T15:03:23.399Z,30.52
2022-09-05T15:05:40.018Z,30.49
2022-09-05T15:07:44.917Z,30.48
2022-09-05T15:12:17.409Z,30.44
2022-09-05T15:12:33.022Z,30.43
2022-09-05T15:14:37.556Z,30.40
2022-09-05T15:16:57.972Z,30.40
2022-09-05T15:19:01.099Z,30.38
2022-09-05T15:21:33.198Z,30.35
2022-09-05T15:23:38.277Z,30.29
2022-09-05T15:25:47.462Z,30.25
2022-09-05T15:27:50.852Z,30.24
2022-09-05T15:29:55.851Z,30.25
2022-09-05T15:32:14.976Z,30.22
2022-09-05T15:34:24.714Z,30.22
2022-09-05T15:36:32.899Z,30.20
2022-09-05T15:38:56.218Z,30.17
2022-09-05T15:41:19.731Z,30.14
2022-09-05T15:43:24.921Z,30.12
2022-09-05T15:45:29.920Z,30.07
2022-09-05T15:47:35.128Z,30.04
2022-09-05T15:49:41.013Z,30.03
2022-09-05T15:51:47.217Z,30.01
2022-09-05T15:53:52.431Z,30.00
2022-09-05T15:56:03.779Z,29.99
2022-09-05T15:58:10.343Z,29.98
2022-09-05T16:00:33.578Z,29.95
2022-09-05T16:02:40.646Z,29.92
2022-09-05T16:04:47.897Z,29.89
2022-09-05T16:10:28.079Z,29.84
2022-09-05T16:10:36.336Z,29.84
2022-09-05T16:12:16.893Z,29.81
2022-09-05T16:14:24.991Z,29.79
2022-09-05T16:23:13.234Z,29.77
2022-09-05T16:23:13.911Z,29.74
2022-09-05T16:23:24.296Z,29.71
2022-09-05T16:23:46.491Z,29.68
2022-09-05T16:25:52.696Z,29.67
2022-09-05T16:27:58.576Z,29.64
2022-09-05T16:30:01.982Z,29.63
2022-09-05T16:32:16.180Z,29.61
2022-09-05T16:34:23.414Z,29.58
2022-09-05T16:36:29.424Z,29.56
2022-09-05T16:38:48.862Z,29.53
2022-09-05T16:40:54.701Z,29.51
2022-09-05T16:43:03.759Z,29.49
2022-09-05T16:45:14.139Z,29.48
2022-09-05T16:47:23.190Z,29.44
2022-09-05T16:49:41.758Z,29.42
2022-09-05T16:51:50.187Z,29.39
2022-09-05T16:53:59.034Z,29.36
2022-09-05T16:56:07.940Z,29.33
2022-09-05T16:58:15.450Z,29.26
2022-09-05T17:00:18.730Z,29.21
2022-09-05T17:02:28.286Z,29.21
2022-09-05T17:05:03.427Z,29.16
2022-09-05T17:07:17.795Z,29.10
2022-09-05T17:09:23.241Z,29.06
2022-09-05T17:11:30.055Z,29.02
2022-09-05T17:13:41.748Z,28.99
2022-09-05T17:15:51.957Z,28.95
2022-09-05T17:18:22.597Z,28.92
2022-09-05T17:20:27.647Z,28.87
2022-09-05T17:24:30.507Z,28.82
2022-09-05T17:29:26.226Z,28.70
2022-09-05T17:29:30.405Z,28.76
2022-09-05T17:32:29.513Z,28.57
2022-09-05T17:34:49.634Z,28.50
2022-09-05T17:37:14.820Z,28.43
2022-09-05T17:39:44.136Z,28.33
2022-09-05T17:42:00.330Z,28.22
2022-09-05T17:44:10.409Z,28.12
2022-09-05T17:46:18.853Z,27.99
2022-09-05T17:49:18.523Z,27.86
2022-09-05T17:52:06.861Z,27.71
2022-09-05T17:54:28.529Z,27.62
2022-09-05T17:56:34.946Z,27.54
2022-09-05T17:58:50.176Z,27.43
2022-09-05T18:01:05.601Z,27.31
2022-09-05T18:03:08.775Z,27.22
2022-09-05T18:05:47.978Z,27.17
2022-09-05T18:07:58.107Z,27.10
2022-09-05T18:10:14.674Z,27.04
2022-09-05T18:15:04.842Z,26.92
2022-09-05T18:17:52.382Z,26.85
2022-09-05T18:20:06.504Z,26.76
2022-09-05T18:22:22.374Z,26.69
2022-09-05T18:24:42.366Z,26.61
2022-09-05T18:26:53.311Z,26.53
2022-09-05T18:29:01.913Z,26.43
2022-09-05T18:31:43.792Z,26.34
2022-09-05T18:34:38.810Z,26.21
2022-09-05T18:36:42.407Z,26.09
2022-09-05T18:38:50.787Z,26.02
2022-09-05T18:41:12.382Z,25.97
2022-09-05T18:43:25.077Z,25.89
2022-09-05T18:45:33.873Z,25.83
2022-09-05T18:47:51.287Z,25.74
2022-09-05T18:50:25.014Z,25.62
2022-09-05T18:52:28.195Z,25.54
2022-09-05T18:54:34.863Z,25.49
2022-09-05T18:57:13.925Z,25.45
2022-09-05T18:59:12.157Z,25.38
2022-09-05T19:01:25.824Z,25.28
2022-09-05T19:03:33.027Z,25.20
2022-09-05T19:05:40.874Z,25.16
2022-09-05T19:07:48.347Z,25.12
2022-09-05T19:10:33.917Z,25.08
2022-09-05T19:12:33.143Z,25.01
2022-09-05T19:14:46.256Z,24.94
2022-09-05T19:16:50.204Z,24.87
2022-09-05T19:19:08.869Z,24.80
2022-09-05T19:21:16.807Z,24.73
2022-09-05T19:23:23.220Z,24.67
2022-09-05T19:25:30.620Z,24.62
2022-09-05T19:32:37.464Z,24.57
2022-09-05T19:36:50.326Z,24.49
2022-09-05T19:37:05.141Z,24.38
2022-09-05T19:37:08.542Z,24.44
2022-09-05T19:37:29.468Z,24.32
2022-09-05T19:46:15.451Z,24.25
2022-09-05T19:47:46.499Z,24.14
2022-09-05T19:47:48.808Z,24.08
2022-09-05T19:47:51.862Z,24.19
2022-09-05T19:49:22.238Z,24.02
2022-09-05T19:51:26.992Z,23.98
2022-09-05T19:53:30.360Z,23.94
2022-09-05T19:55:38.187Z,23.86
2022-09-05T19:57:52.634Z,23.80
2022-09-05T20:00:14.247Z,23.74
2022-09-05T20:02:24.996Z,23.70
2022-09-05T20:04:32.118Z,23.63
2022-09-05T20:06:39.672Z,23.58
2022-09-05T20:08:42.908Z,23.53
2022-09-05T20:10:46.734Z,23.48
2022-09-05T20:12:49.970Z,23.42
2022-09-05T20:14:53.201Z,23.37
2022-09-05T20:17:19.129Z,23.31
2022-09-05T20:19:29.301Z,23.26
2022-09-05T20:21:33.860Z,23.21
2022-09-05T20:23:39.798Z,23.15
2022-09-05T20:25:44.265Z,23.09
2022-09-05T20:27:47.849Z,23.02
2022-09-05T20:29:55.995Z,22.93
2022-09-05T20:32:00.780Z,22.91
2022-09-05T20:34:14.958Z,22.87
2022-09-05T20:43:11.575Z,22.84
2022-09-05T20:43:17.116Z,22.77
2022-09-05T20:43:20.996Z,22.80
2022-09-05T20:43:55.790Z,22.72
2022-09-05T20:48:21.953Z,22.70
2022-09-05T20:54:07.459Z,22.66
2022-09-05T20:54:14.955Z,22.60
2022-09-05T20:54:31.064Z,22.52
2022-09-05T20:55:46.974Z,22.49
2022-09-05T20:57:50.780Z,22.44
2022-09-05T20:59:54.091Z,22.41
2022-09-05T21:01:59.334Z,22.37
2022-09-05T21:04:05.637Z,22.33
2022-09-05T21:06:20.007Z,22.28
2022-09-05T21:08:33.010Z,22.23
2022-09-05T21:10:55.051Z,22.19
2022-09-05T21:13:00.058Z,22.14
2022-09-05T21:15:31.726Z,22.10
2022-09-05T21:17:32.183Z,22.05
2022-09-05T21:19:37.359Z,22.00
2022-09-05T21:21:40.772Z,21.94
2022-09-05T21:23:44.253Z,21.91
2022-09-05T21:25:50.009Z,21.85
2022-09-05T21:28:00.940Z,21.82
2022-09-05T21:30:24.219Z,21.79
2022-09-05T21:32:38.298Z,21.76
2022-09-05T21:34:48.473Z,21.74
2022-09-05T21:37:07.644Z,21.70
2022-09-05T21:39:11.238Z,21.66
2022-09-05T21:41:17.255Z,21.61
2022-09-05T21:47:35.623Z,21.58
2022-09-05T21:47:48.043Z,21.56
2022-09-05T21:48:07.876Z,21.52
2022-09-05T21:50:14.051Z,21.50
2022-09-05T21:52:34.701Z,21.45
2022-09-05T21:59:13.804Z,21.41
2022-09-05T21:59:25.145Z,21.39
2022-09-05T21:59:46.980Z,21.34
2022-09-05T22:01:53.130Z,21.30
2022-09-05T22:03:58.156Z,21.27
2022-09-05T22:06:07.381Z,21.22
2022-09-05T22:08:13.223Z,21.18
2022-09-05T22:10:16.753Z,21.16
2022-09-05T22:12:30.148Z,21.14
2022-09-05T22:14:34.341Z,21.11
2022-09-05T22:16:45.188Z,21.08
2022-09-05T22:18:49.784Z,21.06
2022-09-05T22:21:29.562Z,21.04
2022-09-05T22:23:18.480Z,21.01
2022-09-05T22:25:28.070Z,20.98
2022-09-05T22:27:32.744Z,20.95
2022-09-05T22:29:36.095Z,20.93
2022-09-05T22:31:39.368Z,20.88
2022-09-05T22:33:42.611Z,20.86
2022-09-05T22:35:45.696Z,20.86
2022-09-05T22:37:49.438Z,20.83
2022-09-05T22:40:04.989Z,20.80
2022-09-05T22:42:10.546Z,20.78
2022-09-05T22:44:14.143Z,20.74
2022-09-05T22:46:17.485Z,20.71
2022-09-05T22:48:20.648Z,20.69
2022-09-05T22:50:24.104Z,20.63
2022-09-05T22:52:27.140Z,20.59
2022-09-05T22:54:30.210Z,20.58
2022-09-05T22:56:36.648Z,20.56
2022-09-05T22:58:41.111Z,20.52
2022-09-05T23:00:45.023Z,20.51
2022-09-05T23:02:52.456Z,20.48
2022-09-05T23:04:56.024Z,20.45
2022-09-05T23:07:02.566Z,20.42
2022-09-05T23:09:05.625Z,20.39
2022-09-05T23:11:09.470Z,20.38
2022-09-05T23:13:13.922Z,20.33
2022-09-05T23:15:17.074Z,20.31
2022-09-05T23:17:20.219Z,20.30
2022-09-05T23:19:23.290Z,20.27
2022-09-05T23:21:26.487Z,20.24
2022-09-05T23:23:29.810Z,20.23
2022-09-05T23:25:33.553Z,20.20
2022-09-05T23:27:37.703Z,20.19
2022-09-05T23:29:42.088Z,20.16
2022-09-05T23:31:45.147Z,20.14
2022-09-05T23:33:48.311Z,20.14
2022-09-05T23:35:51.316Z,20.11
2022-09-05T23:37:54.459Z,20.10
2022-09-05T23:39:57.975Z,20.09
2022-09-05T23:42:01.042Z,20.06
2022-09-05T23:44:04.159Z,20.04
2022-09-05T23:46:08.978Z,20.01
2022-09-05T23:48:12.226Z,20.00
2022-09-05T23:50:15.565Z,19.97
2022-09-05T23:52:18.582Z,19.94
2022-09-05T23:54:21.659Z,19.91
2022-09-05T23:56:24.905Z,19.87
2022-09-05T23:58:28.942Z,19.84
